sensor_id;sensor_type;location;lat;lon;timestamp;temperature;humidity
48860;DHT22;34679;51.436;-2.518;2023-09-12T00:02:19;17.70;99.90
48860;DHT22;34679;51.436;-2.518;2023-09-12T00:04:44;17.80;99.90
48860;DHT22;34679;51.436;-2.518;2023-09-12T00:07:10;17.80;99.90
48860;DHT22;34679;51.436;-2.518;2023-09-12T00:09:36;17.80;99.90
48860;DHT22;34679;51.436;-2.518;2023-09-12T00:12:01;17.80;99.90
48860;DHT22;34679;51.436;-2.518;2023-09-12T00:14:28;17.80;99.90
48860;DHT22;34679;51.436;-2.518;2023-09-12T00:16:53;17.80;99.90
48860;DHT22;34679;51.436;-2.518;2023-09-12T00:19:21;17.80;99.90
48860;DHT22;34679;51.436;-2.518;2023-09-12T00:21:46;17.80;99.90
48860;DHT22;34679;51.436;-2.518;2023-09-12T00:24:12;17.80;99.90
48860;DHT22;34679;51.436;-2.518;2023-09-12T00:26:37;17.70;99.90
48860;DHT22;34679;51.436;-2.518;2023-09-12T00:29:03;17.80;99.90
48860;DHT22;34679;51.436;-2.518;2023-09-12T00:31:29;17.80;99.90
48860;DHT22;34679;51.436;-2.518;2023-09-12T00:33:54;17.90;99.90
48860;DHT22;34679;51.436;-2.518;2023-09-12T00:36:20;17.80;99.90
48860;DHT22;34679;51.436;-2.518;2023-09-12T00:38:46;17.90;99.90
48860;DHT22;34679;51.436;-2.518;2023-09-12T00:41:11;17.90;99.90
48860;DHT22;34679;51.436;-2.518;2023-09-12T00:43:37;17.90;99.90
48860;DHT22;34679;51.436;-2.518;2023-09-12T00:46:03;17.90;99.90
48860;DHT22;34679;51.436;-2.518;2023-09-12T00:48:29;17.90;99.90
48860;DHT22;34679;51.436;-2.518;2023-09-12T00:50:56;17.90;99.90
48860;DHT22;34679;51.436;-2.518;2023-09-12T00:53:22;17.90;99.90
48860;DHT22;34679;51.436;-2.518;2023-09-12T00:55:54;17.90;99.90
48860;DHT22;34679;51.436;-2.518;2023-09-12T00:58:22;17.80;99.90
48860;DHT22;34679;51.436;-2.518;2023-09-12T01:00:49;17.80;99.90
48860;DHT22;34679;51.436;-2.518;2023-09-12T01:03:14;17.80;99.90
48860;DHT22;34679;51.436;-2.518;2023-09-12T01:05:42;17.80;99.90
48860;DHT22;34679;51.436;-2.518;2023-09-12T01:08:08;17.80;99.90
48860;DHT22;34679;51.436;-2.518;2023-09-12T01:10:34;17.80;99.90
48860;DHT22;34679;51.436;-2.518;2023-09-12T01:12:59;17.80;99.90
48860;DHT22;34679;51.436;-2.518;2023-09-12T01:15:25;17.80;99.90
48860;DHT22;34679;51.436;-2.518;2023-09-12T01:17:51;17.80;99.90
48860;DHT22;34679;51.436;-2.518;2023-09-12T01:20:31;17.80;99.90
48860;DHT22;34679;51.436;-2.518;2023-09-12T01:28:30;17.90;99.90
48860;DHT22;34679;51.436;-2.518;2023-09-12T01:31:01;17.90;99.90
48860;DHT22;34679;51.436;-2.518;2023-09-12T01:33:28;17.90;99.90
48860;DHT22;34679;51.436;-2.518;2023-09-12T01:35:54;17.90;99.90
48860;DHT22;34679;51.436;-2.518;2023-09-12T01:38:21;17.90;99.90
48860;DHT22;34679;51.436;-2.518;2023-09-12T01:40:49;17.90;99.90
48860;DHT22;34679;51.436;-2.518;2023-09-12T01:43:19;17.90;99.90
48860;DHT22;34679;51.436;-2.518;2023-09-12T01:45:47;18.00;99.90
48860;DHT22;34679;51.436;-2.518;2023-09-12T01:48:17;18.00;99.90
48860;DHT22;34679;51.436;-2.518;2023-09-12T01:50:44;17.90;99.90
48860;DHT22;34679;51.436;-2.518;2023-09-12T01:53:10;18.00;99.90
48860;DHT22;34679;51.436;-2.518;2023-09-12T01:55:37;18.00;99.90
48860;DHT22;34679;51.436;-2.518;2023-09-12T01:58:03;18.00;99.90
48860;DHT22;34679;51.436;-2.518;2023-09-12T02:00:29;18.00;99.90
48860;DHT22;34679;51.436;-2.518;2023-09-12T02:02:55;17.90;99.90
48860;DHT22;34679;51.436;-2.518;2023-09-12T02:05:22;18.10;99.90
48860;DHT22;34679;51.436;-2.518;2023-09-12T02:07:48;17.90;99.90
48860;DHT22;34679;51.436;-2.518;2023-09-12T02:10:14;18.00;99.90
48860;DHT22;34679;51.436;-2.518;2023-09-12T02:12:40;17.90;99.90
48860;DHT22;34679;51.436;-2.518;2023-09-12T02:15:07;18.00;99.90
48860;DHT22;34679;51.436;-2.518;2023-09-12T02:17:33;17.90;99.90
48860;DHT22;34679;51.436;-2.518;2023-09-12T02:19:58;17.90;99.90
48860;DHT22;34679;51.436;-2.518;2023-09-12T02:22:24;17.90;99.90
48860;DHT22;34679;51.436;-2.518;2023-09-12T02:24:50;17.80;99.90
48860;DHT22;34679;51.436;-2.518;2023-09-12T02:27:16;17.80;99.90
48860;DHT22;34679;51.436;-2.518;2023-09-12T02:29:42;17.70;99.90
48860;DHT22;34679;51.436;-2.518;2023-09-12T02:32:08;17.60;99.90
48860;DHT22;34679;51.436;-2.518;2023-09-12T02:34:34;17.60;99.90
48860;DHT22;34679;51.436;-2.518;2023-09-12T02:37:00;17.60;99.90
48860;DHT22;34679;51.436;-2.518;2023-09-12T02:39:26;17.50;99.90
48860;DHT22;34679;51.436;-2.518;2023-09-12T02:41:51;17.50;99.90
48860;DHT22;34679;51.436;-2.518;2023-09-12T02:44:17;17.50;99.90
48860;DHT22;34679;51.436;-2.518;2023-09-12T02:46:43;17.50;99.90
48860;DHT22;34679;51.436;-2.518;2023-09-12T02:49:08;17.60;99.90
48860;DHT22;34679;51.436;-2.518;2023-09-12T02:51:38;17.60;99.90
48860;DHT22;34679;51.436;-2.518;2023-09-12T02:54:04;17.60;99.90
48860;DHT22;34679;51.436;-2.518;2023-09-12T02:56:29;17.60;99.90
48860;DHT22;34679;51.436;-2.518;2023-09-12T02:58:56;17.70;99.90
48860;DHT22;34679;51.436;-2.518;2023-09-12T03:01:22;17.60;99.90
48860;DHT22;34679;51.436;-2.518;2023-09-12T03:03:51;17.60;99.90
48860;DHT22;34679;51.436;-2.518;2023-09-12T03:06:16;17.60;99.90
48860;DHT22;34679;51.436;-2.518;2023-09-12T03:08:44;17.50;99.90
48860;DHT22;34679;51.436;-2.518;2023-09-12T03:11:10;17.50;99.90
48860;DHT22;34679;51.436;-2.518;2023-09-12T03:13:40;17.40;99.90
48860;DHT22;34679;51.436;-2.518;2023-09-12T03:16:10;17.30;99.90
48860;DHT22;34679;51.436;-2.518;2023-09-12T03:18:36;17.20;99.90
48860;DHT22;34679;51.436;-2.518;2023-09-12T03:21:02;17.10;99.90
48860;DHT22;34679;51.436;-2.518;2023-09-12T03:23:28;17.10;99.90
48860;DHT22;34679;51.436;-2.518;2023-09-12T03:25:53;17.10;99.90
48860;DHT22;34679;51.436;-2.518;2023-09-12T03:28:19;17.10;99.90
48860;DHT22;34679;51.436;-2.518;2023-09-12T03:30:45;17.00;99.90
48860;DHT22;34679;51.436;-2.518;2023-09-12T03:33:11;16.90;99.90
48860;DHT22;34679;51.436;-2.518;2023-09-12T03:35:36;16.90;99.90
48860;DHT22;34679;51.436;-2.518;2023-09-12T03:38:02;16.90;99.90
48860;DHT22;34679;51.436;-2.518;2023-09-12T03:40:28;16.90;99.90
48860;DHT22;34679;51.436;-2.518;2023-09-12T03:42:56;16.90;99.90
48860;DHT22;34679;51.436;-2.518;2023-09-12T03:45:21;16.90;99.90
48860;DHT22;34679;51.436;-2.518;2023-09-12T03:47:47;16.90;99.90
48860;DHT22;34679;51.436;-2.518;2023-09-12T03:50:13;16.90;99.90
48860;DHT22;34679;51.436;-2.518;2023-09-12T03:52:41;16.90;99.90
48860;DHT22;34679;51.436;-2.518;2023-09-12T03:55:07;16.90;99.90
48860;DHT22;34679;51.436;-2.518;2023-09-12T03:57:33;16.90;99.90
48860;DHT22;34679;51.436;-2.518;2023-09-12T03:59:59;17.00;99.90
48860;DHT22;34679;51.436;-2.518;2023-09-12T04:02:25;17.00;99.90
48860;DHT22;34679;51.436;-2.518;2023-09-12T04:04:50;17.00;99.90
48860;DHT22;34679;51.436;-2.518;2023-09-12T04:07:17;17.00;99.90
48860;DHT22;34679;51.436;-2.518;2023-09-12T04:09:43;17.00;99.90
48860;DHT22;34679;51.436;-2.518;2023-09-12T04:12:08;17.00;99.90
48860;DHT22;34679;51.436;-2.518;2023-09-12T04:14:35;17.10;99.90
48860;DHT22;34679;51.436;-2.518;2023-09-12T04:17:01;17.10;99.90
48860;DHT22;34679;51.436;-2.518;2023-09-12T04:19:27;17.20;99.90
48860;DHT22;34679;51.436;-2.518;2023-09-12T04:21:52;17.20;99.90
48860;DHT22;34679;51.436;-2.518;2023-09-12T04:24:18;17.20;99.90
48860;DHT22;34679;51.436;-2.518;2023-09-12T04:26:44;17.30;99.90
48860;DHT22;34679;51.436;-2.518;2023-09-12T04:29:10;17.30;99.90
48860;DHT22;34679;51.436;-2.518;2023-09-12T04:31:36;17.30;99.90
48860;DHT22;34679;51.436;-2.518;2023-09-12T04:34:02;17.30;99.90
48860;DHT22;34679;51.436;-2.518;2023-09-12T04:36:27;17.30;99.90
48860;DHT22;34679;51.436;-2.518;2023-09-12T04:38:53;17.30;99.90
48860;DHT22;34679;51.436;-2.518;2023-09-12T04:41:19;17.40;99.90
48860;DHT22;34679;51.436;-2.518;2023-09-12T04:43:44;17.30;99.90
48860;DHT22;34679;51.436;-2.518;2023-09-12T04:46:11;17.40;99.90
48860;DHT22;34679;51.436;-2.518;2023-09-12T04:48:37;17.40;99.90
48860;DHT22;34679;51.436;-2.518;2023-09-12T04:51:02;17.40;99.90
48860;DHT22;34679;51.436;-2.518;2023-09-12T04:53:28;17.40;99.90
48860;DHT22;34679;51.436;-2.518;2023-09-12T04:56:00;17.40;99.90
48860;DHT22;34679;51.436;-2.518;2023-09-12T04:58:26;17.30;99.90
48860;DHT22;34679;51.436;-2.518;2023-09-12T05:00:51;17.40;99.90
48860;DHT22;34679;51.436;-2.518;2023-09-12T05:03:17;17.40;99.90
48860;DHT22;34679;51.436;-2.518;2023-09-12T05:05:46;17.40;99.90
48860;DHT22;34679;51.436;-2.518;2023-09-12T05:08:12;17.40;99.90
48860;DHT22;34679;51.436;-2.518;2023-09-12T05:10:38;17.40;99.90
48860;DHT22;34679;51.436;-2.518;2023-09-12T05:13:05;17.40;99.90
48860;DHT22;34679;51.436;-2.518;2023-09-12T05:15:30;17.50;99.90
48860;DHT22;34679;51.436;-2.518;2023-09-12T05:17:56;17.50;99.90
48860;DHT22;34679;51.436;-2.518;2023-09-12T05:20:22;17.50;99.90
48860;DHT22;34679;51.436;-2.518;2023-09-12T05:22:47;17.50;99.90
48860;DHT22;34679;51.436;-2.518;2023-09-12T05:25:13;17.50;99.90
48860;DHT22;34679;51.436;-2.518;2023-09-12T05:27:39;17.50;99.90
48860;DHT22;34679;51.436;-2.518;2023-09-12T05:30:05;17.50;99.90
48860;DHT22;34679;51.436;-2.518;2023-09-12T05:32:31;17.50;99.90
48860;DHT22;34679;51.436;-2.518;2023-09-12T05:34:57;17.50;99.90
48860;DHT22;34679;51.436;-2.518;2023-09-12T05:37:22;17.50;99.90
48860;DHT22;34679;51.436;-2.518;2023-09-12T05:39:48;17.50;99.90
48860;DHT22;34679;51.436;-2.518;2023-09-12T05:42:14;17.50;99.90
48860;DHT22;34679;51.436;-2.518;2023-09-12T05:44:41;17.50;99.90
48860;DHT22;34679;51.436;-2.518;2023-09-12T05:47:09;17.50;99.90
48860;DHT22;34679;51.436;-2.518;2023-09-12T05:49:35;17.50;99.90
48860;DHT22;34679;51.436;-2.518;2023-09-12T05:52:00;17.50;99.90
48860;DHT22;34679;51.436;-2.518;2023-09-12T05:54:28;17.50;99.90
48860;DHT22;34679;51.436;-2.518;2023-09-12T05:56:53;17.50;99.90
48860;DHT22;34679;51.436;-2.518;2023-09-12T05:59:19;17.50;99.90
48860;DHT22;34679;51.436;-2.518;2023-09-12T06:01:45;17.50;99.90
48860;DHT22;34679;51.436;-2.518;2023-09-12T06:04:10;17.60;99.90
48860;DHT22;34679;51.436;-2.518;2023-09-12T06:06:36;17.60;99.90
48860;DHT22;34679;51.436;-2.518;2023-09-12T06:09:02;17.70;99.90
48860;DHT22;34679;51.436;-2.518;2023-09-12T06:11:29;17.80;99.90
48860;DHT22;34679;51.436;-2.518;2023-09-12T06:13:54;17.90;99.90
48860;DHT22;34679;51.436;-2.518;2023-09-12T06:16:20;17.90;99.90
48860;DHT22;34679;51.436;-2.518;2023-09-12T06:18:46;18.10;99.90
48860;DHT22;34679;51.436;-2.518;2023-09-12T06:21:14;18.20;99.90
48860;DHT22;34679;51.436;-2.518;2023-09-12T06:23:39;18.30;99.90
48860;DHT22;34679;51.436;-2.518;2023-09-12T06:26:05;18.40;99.90
48860;DHT22;34679;51.436;-2.518;2023-09-12T06:28:32;18.50;99.90
48860;DHT22;34679;51.436;-2.518;2023-09-12T06:30:58;18.60;99.90
48860;DHT22;34679;51.436;-2.518;2023-09-12T06:33:25;18.70;99.90
48860;DHT22;34679;51.436;-2.518;2023-09-12T06:35:51;18.80;99.90
48860;DHT22;34679;51.436;-2.518;2023-09-12T06:38:19;19.00;99.90
48860;DHT22;34679;51.436;-2.518;2023-09-12T06:40:45;19.50;99.90
48860;DHT22;34679;51.436;-2.518;2023-09-12T06:43:13;19.80;99.90
48860;DHT22;34679;51.436;-2.518;2023-09-12T06:45:40;19.90;99.90
48860;DHT22;34679;51.436;-2.518;2023-09-12T06:48:06;19.90;99.90
48860;DHT22;34679;51.436;-2.518;2023-09-12T06:50:32;19.90;99.90
48860;DHT22;34679;51.436;-2.518;2023-09-12T06:52:58;20.00;99.90
48860;DHT22;34679;51.436;-2.518;2023-09-12T06:55:27;20.00;99.90
48860;DHT22;34679;51.436;-2.518;2023-09-12T06:57:53;19.90;99.90
48860;DHT22;34679;51.436;-2.518;2023-09-12T07:03:09;19.80;99.90
48860;DHT22;34679;51.436;-2.518;2023-09-12T07:05:36;19.70;99.90
48860;DHT22;34679;51.436;-2.518;2023-09-12T07:08:04;19.70;99.90
48860;DHT22;34679;51.436;-2.518;2023-09-12T07:10:30;19.60;99.90
48860;DHT22;34679;51.436;-2.518;2023-09-12T07:12:55;19.50;99.90
48860;DHT22;34679;51.436;-2.518;2023-09-12T07:15:21;19.50;99.90
48860;DHT22;34679;51.436;-2.518;2023-09-12T07:17:47;19.50;99.90
48860;DHT22;34679;51.436;-2.518;2023-09-12T07:20:12;19.40;99.90
48860;DHT22;34679;51.436;-2.518;2023-09-12T07:22:39;19.40;99.90
48860;DHT22;34679;51.436;-2.518;2023-09-12T07:25:06;19.30;99.90
48860;DHT22;34679;51.436;-2.518;2023-09-12T07:27:32;19.40;99.90
48860;DHT22;34679;51.436;-2.518;2023-09-12T07:29:58;19.40;99.90
48860;DHT22;34679;51.436;-2.518;2023-09-12T07:32:23;19.50;99.90
48860;DHT22;34679;51.436;-2.518;2023-09-12T07:34:50;19.50;99.90
48860;DHT22;34679;51.436;-2.518;2023-09-12T07:37:15;19.60;99.90
48860;DHT22;34679;51.436;-2.518;2023-09-12T07:39:41;19.70;99.90
48860;DHT22;34679;51.436;-2.518;2023-09-12T07:42:06;19.70;99.90
48860;DHT22;34679;51.436;-2.518;2023-09-12T07:44:32;19.70;99.90
48860;DHT22;34679;51.436;-2.518;2023-09-12T07:46:58;19.80;99.90
48860;DHT22;34679;51.436;-2.518;2023-09-12T07:49:24;19.80;99.90
48860;DHT22;34679;51.436;-2.518;2023-09-12T07:51:51;19.80;99.90
48860;DHT22;34679;51.436;-2.518;2023-09-12T07:54:17;19.90;99.90
48860;DHT22;34679;51.436;-2.518;2023-09-12T07:56:43;19.90;99.90
48860;DHT22;34679;51.436;-2.518;2023-09-12T07:59:09;19.80;99.90
48860;DHT22;34679;51.436;-2.518;2023-09-12T08:01:37;19.80;99.90
48860;DHT22;34679;51.436;-2.518;2023-09-12T08:04:04;19.90;99.90
48860;DHT22;34679;51.436;-2.518;2023-09-12T08:06:33;19.90;99.90
48860;DHT22;34679;51.436;-2.518;2023-09-12T08:08:59;19.90;99.90
48860;DHT22;34679;51.436;-2.518;2023-09-12T08:11:26;20.00;99.90
48860;DHT22;34679;51.436;-2.518;2023-09-12T08:13:52;20.00;99.90
48860;DHT22;34679;51.436;-2.518;2023-09-12T08:16:18;20.10;99.90
48860;DHT22;34679;51.436;-2.518;2023-09-12T08:18:44;20.00;99.90
48860;DHT22;34679;51.436;-2.518;2023-09-12T08:21:10;20.10;99.90
48860;DHT22;34679;51.436;-2.518;2023-09-12T08:23:38;20.10;99.90
48860;DHT22;34679;51.436;-2.518;2023-09-12T08:26:04;20.10;99.90
48860;DHT22;34679;51.436;-2.518;2023-09-12T08:28:30;20.20;99.90
48860;DHT22;34679;51.436;-2.518;2023-09-12T08:30:55;20.10;99.90
48860;DHT22;34679;51.436;-2.518;2023-09-12T08:33:21;20.10;99.90
48860;DHT22;34679;51.436;-2.518;2023-09-12T08:35:48;20.30;99.90
48860;DHT22;34679;51.436;-2.518;2023-09-12T08:38:14;20.30;99.90
48860;DHT22;34679;51.436;-2.518;2023-09-12T08:40:51;20.30;99.90
48860;DHT22;34679;51.436;-2.518;2023-09-12T08:43:17;20.40;99.90
48860;DHT22;34679;51.436;-2.518;2023-09-12T08:45:43;20.60;99.90
48860;DHT22;34679;51.436;-2.518;2023-09-12T08:48:11;20.60;99.90
48860;DHT22;34679;51.436;-2.518;2023-09-12T08:50:38;20.60;99.90
48860;DHT22;34679;51.436;-2.518;2023-09-12T08:53:04;20.70;99.90
48860;DHT22;34679;51.436;-2.518;2023-09-12T08:55:31;20.60;99.90
48860;DHT22;34679;51.436;-2.518;2023-09-12T08:58:04;20.60;99.90
48860;DHT22;34679;51.436;-2.518;2023-09-12T09:00:30;20.50;99.90
48860;DHT22;34679;51.436;-2.518;2023-09-12T09:02:57;20.50;99.90
48860;DHT22;34679;51.436;-2.518;2023-09-12T09:05:24;20.60;99.90
48860;DHT22;34679;51.436;-2.518;2023-09-12T09:07:51;20.70;99.90
48860;DHT22;34679;51.436;-2.518;2023-09-12T09:10:18;20.70;99.90
48860;DHT22;34679;51.436;-2.518;2023-09-12T09:12:45;20.80;99.90
48860;DHT22;34679;51.436;-2.518;2023-09-12T09:17:48;20.80;99.90
48860;DHT22;34679;51.436;-2.518;2023-09-12T09:20:40;20.90;99.90
48860;DHT22;34679;51.436;-2.518;2023-09-12T09:23:11;21.10;99.90
48860;DHT22;34679;51.436;-2.518;2023-09-12T09:25:41;21.40;99.90
48860;DHT22;34679;51.436;-2.518;2023-09-12T09:28:20;21.60;99.90
48860;DHT22;34679;51.436;-2.518;2023-09-12T09:30:50;21.70;99.90
48860;DHT22;34679;51.436;-2.518;2023-09-12T09:33:17;21.90;99.90
48860;DHT22;34679;51.436;-2.518;2023-09-12T09:35:45;22.10;99.90
48860;DHT22;34679;51.436;-2.518;2023-09-12T09:38:11;22.30;99.90
48860;DHT22;34679;51.436;-2.518;2023-09-12T09:40:42;22.60;99.90
48860;DHT22;34679;51.436;-2.518;2023-09-12T09:43:09;22.50;99.90
48860;DHT22;34679;51.436;-2.518;2023-09-12T09:45:43;22.30;99.90
48860;DHT22;34679;51.436;-2.518;2023-09-12T09:48:10;22.20;99.90
48860;DHT22;34679;51.436;-2.518;2023-09-12T09:50:42;21.90;99.90
48860;DHT22;34679;51.436;-2.518;2023-09-12T09:53:08;21.20;99.90
48860;DHT22;34679;51.436;-2.518;2023-09-12T09:55:35;20.10;99.90
48860;DHT22;34679;51.436;-2.518;2023-09-12T09:58:02;19.70;99.90
48860;DHT22;34679;51.436;-2.518;2023-09-12T10:00:29;19.50;99.90
48860;DHT22;34679;51.436;-2.518;2023-09-12T10:02:55;19.20;99.90
48860;DHT22;34679;51.436;-2.518;2023-09-12T10:05:22;19.10;99.90
48860;DHT22;34679;51.436;-2.518;2023-09-12T10:07:49;18.90;99.90
48860;DHT22;34679;51.436;-2.518;2023-09-12T10:10:17;18.80;99.90
48860;DHT22;34679;51.436;-2.518;2023-09-12T10:12:53;18.80;99.90
48860;DHT22;34679;51.436;-2.518;2023-09-12T10:15:21;18.70;99.90
48860;DHT22;34679;51.436;-2.518;2023-09-12T10:18:14;18.80;99.90
48860;DHT22;34679;51.436;-2.518;2023-09-12T10:20:48;18.80;99.90
48860;DHT22;34679;51.436;-2.518;2023-09-12T10:23:22;18.60;99.90
48860;DHT22;34679;51.436;-2.518;2023-09-12T10:25:49;18.60;99.90
48860;DHT22;34679;51.436;-2.518;2023-09-12T10:28:17;18.80;99.90
48860;DHT22;34679;51.436;-2.518;2023-09-12T10:30:42;19.00;99.90
48860;DHT22;34679;51.436;-2.518;2023-09-12T10:33:09;19.40;99.90
48860;DHT22;34679;51.436;-2.518;2023-09-12T10:35:37;19.60;99.90
48860;DHT22;34679;51.436;-2.518;2023-09-12T10:38:05;19.60;99.90
48860;DHT22;34679;51.436;-2.518;2023-09-12T10:40:36;19.80;99.90
48860;DHT22;34679;51.436;-2.518;2023-09-12T10:43:03;20.10;99.90
48860;DHT22;34679;51.436;-2.518;2023-09-12T10:45:35;20.40;99.90
48860;DHT22;34679;51.436;-2.518;2023-09-12T10:48:02;20.50;99.90
48860;DHT22;34679;51.436;-2.518;2023-09-12T10:50:28;20.80;99.90
48860;DHT22;34679;51.436;-2.518;2023-09-12T10:52:54;20.90;99.90
48860;DHT22;34679;51.436;-2.518;2023-09-12T10:55:20;21.00;99.90
48860;DHT22;34679;51.436;-2.518;2023-09-12T10:58:08;20.80;99.90
48860;DHT22;34679;51.436;-2.518;2023-09-12T11:00:33;20.70;99.90
48860;DHT22;34679;51.436;-2.518;2023-09-12T11:05:54;20.90;99.90
48860;DHT22;34679;51.436;-2.518;2023-09-12T11:08:21;20.90;99.90
48860;DHT22;34679;51.436;-2.518;2023-09-12T11:11:21;21.00;99.90
48860;DHT22;34679;51.436;-2.518;2023-09-12T11:13:47;21.00;99.90
48860;DHT22;34679;51.436;-2.518;2023-09-12T11:16:28;21.20;99.90
48860;DHT22;34679;51.436;-2.518;2023-09-12T11:19:16;21.20;99.90
48860;DHT22;34679;51.436;-2.518;2023-09-12T11:21:49;21.30;99.90
48860;DHT22;34679;51.436;-2.518;2023-09-12T11:24:16;21.40;99.90
48860;DHT22;34679;51.436;-2.518;2023-09-12T11:26:56;21.70;99.90
48860;DHT22;34679;51.436;-2.518;2023-09-12T11:29:36;21.80;99.90
48860;DHT22;34679;51.436;-2.518;2023-09-12T11:32:03;21.90;99.90
48860;DHT22;34679;51.436;-2.518;2023-09-12T11:34:35;22.10;99.90
48860;DHT22;34679;51.436;-2.518;2023-09-12T11:37:02;22.20;99.90
48860;DHT22;34679;51.436;-2.518;2023-09-12T11:39:31;22.30;99.90
48860;DHT22;34679;51.436;-2.518;2023-09-12T11:41:58;22.40;99.90
48860;DHT22;34679;51.436;-2.518;2023-09-12T11:44:24;22.60;99.90
48860;DHT22;34679;51.436;-2.518;2023-09-12T11:46:52;22.70;99.90
48860;DHT22;34679;51.436;-2.518;2023-09-12T11:49:18;22.50;99.90
48860;DHT22;34679;51.436;-2.518;2023-09-12T11:51:52;22.60;99.90
48860;DHT22;34679;51.436;-2.518;2023-09-12T11:54:19;22.60;99.90
48860;DHT22;34679;51.436;-2.518;2023-09-12T11:56:48;22.60;99.90
48860;DHT22;34679;51.436;-2.518;2023-09-12T11:59:15;22.60;99.90
48860;DHT22;34679;51.436;-2.518;2023-09-12T12:01:45;22.80;99.90
48860;DHT22;34679;51.436;-2.518;2023-09-12T12:04:12;23.10;99.90
48860;DHT22;34679;51.436;-2.518;2023-09-12T12:06:37;23.10;99.90
48860;DHT22;34679;51.436;-2.518;2023-09-12T12:09:03;23.10;99.90
48860;DHT22;34679;51.436;-2.518;2023-09-12T12:11:30;23.50;99.90
48860;DHT22;34679;51.436;-2.518;2023-09-12T12:13:57;23.70;99.90
48860;DHT22;34679;51.436;-2.518;2023-09-12T12:16:24;23.30;99.90
48860;DHT22;34679;51.436;-2.518;2023-09-12T12:18:50;23.10;99.90
48860;DHT22;34679;51.436;-2.518;2023-09-12T12:21:20;23.00;99.90
48860;DHT22;34679;51.436;-2.518;2023-09-12T12:23:46;23.10;99.90
48860;DHT22;34679;51.436;-2.518;2023-09-12T12:26:12;22.70;99.90
48860;DHT22;34679;51.436;-2.518;2023-09-12T12:28:38;22.90;99.90
48860;DHT22;34679;51.436;-2.518;2023-09-12T12:31:04;22.60;99.90
48860;DHT22;34679;51.436;-2.518;2023-09-12T12:33:31;22.60;99.90
48860;DHT22;34679;51.436;-2.518;2023-09-12T12:36:04;22.80;99.90
48860;DHT22;34679;51.436;-2.518;2023-09-12T12:38:37;23.00;99.90
48860;DHT22;34679;51.436;-2.518;2023-09-12T12:41:03;22.90;99.90
48860;DHT22;34679;51.436;-2.518;2023-09-12T12:43:30;22.90;99.90
48860;DHT22;34679;51.436;-2.518;2023-09-12T12:45:57;22.80;99.90
48860;DHT22;34679;51.436;-2.518;2023-09-12T12:48:33;22.90;99.90
48860;DHT22;34679;51.436;-2.518;2023-09-12T12:51:05;23.00;99.90
48860;DHT22;34679;51.436;-2.518;2023-09-12T12:53:51;23.10;99.90
48860;DHT22;34679;51.436;-2.518;2023-09-12T12:56:19;23.10;99.90
48860;DHT22;34679;51.436;-2.518;2023-09-12T12:59:04;23.40;99.90
48860;DHT22;34679;51.436;-2.518;2023-09-12T13:01:33;23.70;99.90
48860;DHT22;34679;51.436;-2.518;2023-09-12T13:03:59;23.80;99.90
48860;DHT22;34679;51.436;-2.518;2023-09-12T13:06:25;23.80;99.90
48860;DHT22;34679;51.436;-2.518;2023-09-12T13:08:53;23.80;99.90
48860;DHT22;34679;51.436;-2.518;2023-09-12T13:11:19;23.50;99.90
48860;DHT22;34679;51.436;-2.518;2023-09-12T13:13:47;23.50;99.90
48860;DHT22;34679;51.436;-2.518;2023-09-12T13:16:14;23.40;99.90
48860;DHT22;34679;51.436;-2.518;2023-09-12T13:18:41;23.40;99.90
48860;DHT22;34679;51.436;-2.518;2023-09-12T13:21:06;23.30;99.90
48860;DHT22;34679;51.436;-2.518;2023-09-12T13:23:37;23.40;99.90
48860;DHT22;34679;51.436;-2.518;2023-09-12T13:26:03;23.00;99.90
48860;DHT22;34679;51.436;-2.518;2023-09-12T13:28:29;22.80;99.90
48860;DHT22;34679;51.436;-2.518;2023-09-12T13:30:55;23.00;99.90
48860;DHT22;34679;51.436;-2.518;2023-09-12T13:33:21;22.80;99.90
48860;DHT22;34679;51.436;-2.518;2023-09-12T13:35:48;22.60;99.90
48860;DHT22;34679;51.436;-2.518;2023-09-12T13:38:14;22.60;99.90
48860;DHT22;34679;51.436;-2.518;2023-09-12T13:40:42;22.40;99.90
48860;DHT22;34679;51.436;-2.518;2023-09-12T13:43:09;22.40;99.90
48860;DHT22;34679;51.436;-2.518;2023-09-12T13:45:35;22.20;99.90
48860;DHT22;34679;51.436;-2.518;2023-09-12T13:48:04;22.10;99.90
48860;DHT22;34679;51.436;-2.518;2023-09-12T13:50:31;21.90;99.90
48860;DHT22;34679;51.436;-2.518;2023-09-12T13:53:01;21.80;99.90
48860;DHT22;34679;51.436;-2.518;2023-09-12T13:55:33;21.70;99.90
48860;DHT22;34679;51.436;-2.518;2023-09-12T13:58:02;21.60;99.90
48860;DHT22;34679;51.436;-2.518;2023-09-12T14:00:29;21.70;99.90
48860;DHT22;34679;51.436;-2.518;2023-09-12T14:02:55;21.70;99.90
48860;DHT22;34679;51.436;-2.518;2023-09-12T14:05:21;21.60;99.90
48860;DHT22;34679;51.436;-2.518;2023-09-12T14:07:47;21.70;99.90
48860;DHT22;34679;51.436;-2.518;2023-09-12T14:10:13;21.80;99.90
48860;DHT22;34679;51.436;-2.518;2023-09-12T14:12:39;21.80;99.90
48860;DHT22;34679;51.436;-2.518;2023-09-12T14:15:05;21.70;99.90
48860;DHT22;34679;51.436;-2.518;2023-09-12T14:17:32;21.80;99.90
48860;DHT22;34679;51.436;-2.518;2023-09-12T14:19:58;21.70;99.90
48860;DHT22;34679;51.436;-2.518;2023-09-12T14:22:24;21.60;99.90
48860;DHT22;34679;51.436;-2.518;2023-09-12T14:24:50;21.40;99.90
48860;DHT22;34679;51.436;-2.518;2023-09-12T14:27:15;21.10;99.90
48860;DHT22;34679;51.436;-2.518;2023-09-12T14:29:41;21.00;99.90
48860;DHT22;34679;51.436;-2.518;2023-09-12T14:32:11;20.70;99.90
48860;DHT22;34679;51.436;-2.518;2023-09-12T14:34:37;20.50;99.90
48860;DHT22;34679;51.436;-2.518;2023-09-12T14:37:03;20.40;99.90
48860;DHT22;34679;51.436;-2.518;2023-09-12T14:39:29;20.30;99.90
48860;DHT22;34679;51.436;-2.518;2023-09-12T14:41:54;20.20;99.90
48860;DHT22;34679;51.436;-2.518;2023-09-12T14:44:22;20.10;99.90
48860;DHT22;34679;51.436;-2.518;2023-09-12T14:46:48;20.10;99.90
48860;DHT22;34679;51.436;-2.518;2023-09-12T14:49:14;20.10;99.90
48860;DHT22;34679;51.436;-2.518;2023-09-12T14:51:40;20.20;99.90
48860;DHT22;34679;51.436;-2.518;2023-09-12T14:54:06;20.10;99.90
48860;DHT22;34679;51.436;-2.518;2023-09-12T14:56:33;20.10;99.90
48860;DHT22;34679;51.436;-2.518;2023-09-12T14:59:05;20.20;99.90
48860;DHT22;34679;51.436;-2.518;2023-09-12T15:01:31;20.10;99.90
48860;DHT22;34679;51.436;-2.518;2023-09-12T15:03:57;20.20;99.90
48860;DHT22;34679;51.436;-2.518;2023-09-12T15:06:23;20.20;99.90
48860;DHT22;34679;51.436;-2.518;2023-09-12T15:08:50;20.10;99.90
48860;DHT22;34679;51.436;-2.518;2023-09-12T15:11:16;20.00;99.90
48860;DHT22;34679;51.436;-2.518;2023-09-12T15:13:42;19.90;99.90
48860;DHT22;34679;51.436;-2.518;2023-09-12T15:16:09;19.90;99.90
48860;DHT22;34679;51.436;-2.518;2023-09-12T15:18:35;19.70;99.90
48860;DHT22;34679;51.436;-2.518;2023-09-12T15:21:03;19.70;99.90
48860;DHT22;34679;51.436;-2.518;2023-09-12T15:23:29;19.70;99.90
48860;DHT22;34679;51.436;-2.518;2023-09-12T15:25:55;19.70;99.90
48860;DHT22;34679;51.436;-2.518;2023-09-12T15:28:21;19.60;99.90
48860;DHT22;34679;51.436;-2.518;2023-09-12T15:30:47;19.60;99.90